Time;durP1;ratioP1;P1;durP2;ratioP2;P2;SDS_P1;SDS_P2;PMS_P1;PMS_P2;Temp;Humidity;BMP_temperature;BMP_pressure;BME280_temperature;BME280_humidity;BME280_pressure;Samples;Min_cycle;Max_cycle;Signal;HPM_P1;HPM_P2
2021/01/16 00:00:53;;;;;;;13.25;6.28;;;;;;;-3.63;100.00;98570.38;4985541;28;20038;-77
2021/01/16 00:03:20;;;;;;;13.68;6.00;;;;;;;-3.63;100.00;98573.00;5002618;28;20042;-76
2021/01/16 00:05:49;;;;;;;12.80;5.90;;;;;;;-3.66;100.00;98565.47;5002701;28;20109;-77
2021/01/16 00:08:18;;;;;;;13.82;6.22;;;;;;;-3.65;100.00;98569.75;4999214;28;20050;-77
2021/01/16 00:10:50;;;;;;;15.10;5.95;;;;;;;-3.64;100.00;98559.00;5001742;28;20607;-76
2021/01/16 00:13:21;;;;;;;12.30;6.18;;;;;;;-3.63;100.00;98559.78;4997435;28;20453;-77
2021/01/16 00:15:48;;;;;;;12.98;5.97;;;;;;;-3.68;100.00;98567.50;4998321;28;20401;-76
2021/01/16 00:18:17;;;;;;;12.63;5.78;;;;;;;-3.69;100.00;98571.19;4970382;28;20466;-76
2021/01/16 00:20:49;;;;;;;12.40;5.97;;;;;;;-3.69;100.00;98568.53;5002575;28;20053;-76
2021/01/16 00:23:15;;;;;;;15.15;6.35;;;;;;;-3.74;100.00;98573.63;4962041;28;20050;-75
2021/01/16 00:25:43;;;;;;;13.93;6.38;;;;;;;-3.72;100.00;98569.75;4976060;28;20061;-76
2021/01/16 00:28:20;;;;;;;13.75;6.32;;;;;;;-3.74;100.00;98573.63;4995639;28;20038;-76
2021/01/16 00:30:47;;;;;;;13.45;6.60;;;;;;;-3.76;100.00;98560.56;4993036;28;20514;-76
2021/01/16 00:33:25;;;;;;;12.65;5.93;;;;;;;-3.81;100.00;98569.13;4994804;28;20054;-76
2021/01/16 00:35:54;;;;;;;13.23;6.22;;;;;;;-3.87;100.00;98556.69;4995718;28;20510;-77
2021/01/16 00:38:22;;;;;;;12.25;6.28;;;;;;;-3.83;100.00;98567.69;4978549;28;20052;-76
2021/01/16 00:40:48;;;;;;;13.98;5.93;;;;;;;-3.86;100.00;98563.63;4979286;28;20049;-77
2021/01/16 00:43:16;;;;;;;12.95;6.38;;;;;;;-3.87;100.00;98563.84;4997121;28;20050;-76
2021/01/16 00:45:49;;;;;;;12.77;6.47;;;;;;;-3.92;100.00;98563.59;4981176;28;20050;-77
2021/01/16 00:48:17;;;;;;;14.25;6.72;;;;;;;-3.92;100.00;98568.88;4996584;28;20046;-77
2021/01/16 00:50:44;;;;;;;12.15;6.45;;;;;;;-3.94;100.00;98563.81;5001165;28;20058;-76
2021/01/16 00:53:11;;;;;;;13.57;6.95;;;;;;;-3.98;100.00;98567.88;5000538;28;20049;-76
2021/01/16 00:55:38;;;;;;;14.45;6.43;;;;;;;-4.02;100.00;98556.06;4978621;28;20329;-77
2021/01/16 00:58:09;;;;;;;13.20;6.55;;;;;;;-3.99;100.00;98562.75;4991976;28;20041;-76
2021/01/16 01:00:36;;;;;;;16.65;6.03;;;;;;;-4.00;100.00;98561.94;4978008;28;20660;-77
2021/01/16 01:03:03;;;;;;;15.10;6.22;;;;;;;-4.02;100.00;98566.63;4995928;28;20077;-77
2021/01/16 01:05:30;;;;;;;16.08;6.80;;;;;;;-3.99;100.00;98570.69;4994953;28;20117;-75
2021/01/16 01:07:56;;;;;;;11.38;5.88;;;;;;;-3.97;100.00;98572.13;4976284;28;20046;-76
2021/01/16 01:10:36;;;;;;;12.05;6.35;;;;;;;-3.97;100.00;98577.41;4958946;28;20049;-76
2021/01/16 01:13:03;;;;;;;15.90;7.15;;;;;;;-3.97;100.00;98573.94;4976708;28;20122;-77
2021/01/16 01:15:29;;;;;;;14.25;6.65;;;;;;;-3.95;100.00;98579.88;4978844;28;20046;-77
2021/01/16 01:17:58;;;;;;;13.30;6.10;;;;;;;-3.95;100.00;98570.09;4992894;28;20048;-77
2021/01/16 01:20:24;;;;;;;17.73;7.40;;;;;;;-3.96;100.00;98583.53;4974671;28;20050;-77
2021/01/16 01:22:51;;;;;;;14.75;6.78;;;;;;;-3.96;100.00;98583.53;4959640;28;20038;-76
2021/01/16 01:25:18;;;;;;;15.25;7.07;;;;;;;-3.94;100.00;98581.50;4995335;28;20053;-76
2021/01/16 01:27:52;;;;;;;16.67;7.70;;;;;;;-3.96;100.00;98583.53;4992474;28;20077;-77
2021/01/16 01:30:21;;;;;;;17.02;7.68;;;;;;;-4.01;100.00;98585.97;4994984;28;20050;-77
2021/01/16 01:32:48;;;;;;;15.95;7.15;;;;;;;-4.02;100.00;98585.13;4994205;28;20061;-77
2021/01/16 01:35:18;;;;;;;20.88;8.77;;;;;;;-3.99;100.00;98583.91;4993842;28;20057;-78
2021/01/16 01:37:53;;;;;;;20.42;8.55;;;;;;;-3.95;100.00;98590.47;4992360;28;20525;-77
2021/01/16 01:40:23;;;;;;;17.67;8.25;;;;;;;-3.88;100.00;98593.94;4991793;28;20050;-76
2021/01/16 01:42:54;;;;;;;16.20;7.90;;;;;;;-3.86;100.00;98598.00;4993112;28;20053;-77
2021/01/16 01:45:24;;;;;;;16.10;7.00;;;;;;;-3.83;100.00;98592.31;4977150;28;20372;-77
2021/01/16 01:47:51;;;;;;;16.80;7.50;;;;;;;-3.83;100.00;98591.50;4997714;28;20042;-78
2021/01/16 01:50:20;;;;;;;15.60;6.80;;;;;;;-3.90;100.00;98590.69;4977131;28;20050;-77
2021/01/16 01:52:50;;;;;;;13.30;6.28;;;;;;;-3.88;100.00;98589.47;4993109;28;20549;-77
2021/01/16 01:55:17;;;;;;;14.75;6.72;;;;;;;-3.95;100.00;98588.59;4974390;28;20042;-76
2021/01/16 01:57:45;;;;;;;12.88;6.10;;;;;;;-3.93;100.00;98602.47;4974226;28;20050;-77
2021/01/16 02:00:13;;;;;;;15.30;6.47;;;;;;;-3.97;100.00;98601.22;4991473;28;20050;-76
2021/01/16 02:02:42;;;;;;;15.20;6.63;;;;;;;-3.95;100.00;98583.31;4992804;28;20106;-76
2021/01/16 02:05:11;;;;;;;16.15;6.28;;;;;;;-3.96;100.00;98586.19;4960337;28;20261;-77
2021/01/16 02:07:46;;;;;;;14.40;6.53;;;;;;;-3.95;100.00;98585.16;4999081;28;20575;-77
2021/01/16 02:10:12;;;;;;;13.15;5.88;;;;;;;-4.04;100.00;98592.47;4993407;28;20096;-77
2021/01/16 02:12:40;;;;;;;13.35;6.03;;;;;;;-4.09;100.00;98589.59;4994291;28;20065;-77
2021/01/16 02:15:28;;;;;;;16.33;6.72;;;;;;;-4.06;100.00;98593.66;4993579;28;20053;-77
2021/01/16 02:18:06;;;;;;;14.93;6.45;;;;;;;-4.10;100.00;98587.13;4993476;28;20046;-77
2021/01/16 02:20:35;;;;;;;12.85;6.47;;;;;;;-4.16;100.00;98574.72;4973479;28;20049;-76
2021/01/16 02:23:03;;;;;;;15.32;6.88;;;;;;;-4.14;100.00;98585.91;4990687;28;20043;-76
2021/01/16 02:26:11;;;;;;;15.00;6.47;;;;;;;-4.17;100.00;98581.00;4991395;28;20254;-75
2021/01/16 02:28:46;;;;;;;16.05;7.10;;;;;;;-4.17;100.00;98594.22;4979208;28;20053;-76
2021/01/16 02:31:13;;;;;;;14.20;7.15;;;;;;;-4.14;100.00;98581.44;4993121;28;20050;-77
2021/01/16 02:33:42;;;;;;;16.50;7.10;;;;;;;-4.13;100.00;98580.41;4993161;28;20105;-76
2021/01/16 02:36:52;;;;;;;15.23;7.28;;;;;;;-4.17;100.00;98578.38;4993537;28;20055;-77
2021/01/16 02:39:30;;;;;;;16.52;7.03;;;;;;;-4.14;100.00;98581.44;4993301;28;20048;-77
2021/01/16 02:42:35;;;;;;;16.08;6.90;;;;;;;-4.14;100.00;98594.66;4979002;28;20046;-76
2021/01/16 02:45:07;;;;;;;16.15;6.85;;;;;;;-4.23;100.00;98587.91;4969906;28;20459;-76
2021/01/16 02:47:48;;;;;;;14.13;7.05;;;;;;;-4.26;100.00;98584.84;4995078;28;20050;-76
2021/01/16 02:50:22;;;;;;;15.02;6.80;;;;;;;-4.27;100.00;98580.56;4999118;28;20516;-77
2021/01/16 02:52:50;;;;;;;15.80;6.60;;;;;;;-4.39;100.00;98588.25;4983923;28;20054;-78
2021/01/16 02:55:17;;;;;;;13.25;6.28;;;;;;;-4.51;100.00;98580.06;4998444;28;20046;-77
2021/01/16 02:57:44;;;;;;;16.42;7.03;;;;;;;-4.50;100.00;98586.16;4995927;28;20049;-77
2021/01/16 03:00:16;;;;;;;15.65;6.40;;;;;;;-4.55;100.00;98593.88;4995792;28;20457;-77
2021/01/16 03:02:42;;;;;;;14.70;6.20;;;;;;;-4.57;100.00;98585.31;4996426;28;20140;-77
2021/01/16 03:05:11;;;;;;;11.75;5.72;;;;;;;-4.65;100.00;98598.69;4979257;28;20050;-77
2021/01/16 03:07:40;;;;;;;14.27;6.10;;;;;;;-4.72;100.00;98587.28;4996498;28;20056;-77
2021/01/16 03:10:09;;;;;;;9.80;5.47;;;;;;;-4.64;100.00;98606.41;4979517;28;20111;-76
2021/01/16 03:12:37;;;;;;;10.32;5.15;;;;;;;-4.71;100.00;98602.91;4979060;28;20050;-77
2021/01/16 03:15:10;;;;;;;9.50;5.10;;;;;;;-4.74;100.00;98589.28;4978670;28;20089;-76
2021/01/16 03:17:49;;;;;;;11.18;5.07;;;;;;;-4.82;100.00;98595.53;4977322;28;20061;-76
2021/01/16 03:20:31;;;;;;;10.85;5.22;;;;;;;-4.83;100.00;98577.25;4995248;28;20043;-76
2021/01/16 03:23:01;;;;;;;10.02;4.78;;;;;;;-4.82;100.00;98576.22;4978231;28;20133;-76
2021/01/16 03:25:30;;;;;;;11.40;4.47;;;;;;;-4.80;100.00;98582.94;4977953;28;20112;-76
2021/01/16 03:27:57;;;;;;;9.80;4.82;;;;;;;-4.73;100.00;98585.63;4995889;28;20042;-76
2021/01/16 03:30:24;;;;;;;11.05;4.20;;;;;;;-4.77;100.00;98585.19;4995840;28;20046;-76
2021/01/16 03:32:55;;;;;;;9.77;4.10;;;;;;;-4.86;100.00;98575.81;4995015;28;20104;-77
2021/01/16 03:35:26;;;;;;;10.70;4.72;;;;;;;-4.84;100.00;98575.59;4995791;28;20042;-77
2021/01/16 03:37:56;;;;;;;8.98;3.80;;;;;;;-4.86;100.00;98589.00;4977921;28;20109;-77
2021/01/16 03:40:23;;;;;;;8.82;3.88;;;;;;;-4.88;100.00;98585.75;4977993;28;20057;-76
2021/01/16 03:42:49;;;;;;;9.73;4.53;;;;;;;-4.90;100.00;98579.81;4977619;28;20439;-77
2021/01/16 03:45:21;;;;;;;8.40;4.15;;;;;;;-4.80;100.00;98590.06;4994664;28;20046;-77
2021/01/16 03:47:47;;;;;;;9.57;4.13;;;;;;;-4.85;100.00;98574.78;4961567;28;20060;-76
2021/01/16 03:50:14;;;;;;;8.63;3.80;;;;;;;-4.86;100.00;98582.91;4993447;28;20498;-77
2021/01/16 03:52:44;;;;;;;7.72;3.90;;;;;;;-4.93;100.00;98585.53;4992638;28;20387;-77
2021/01/16 03:55:11;;;;;;;9.55;4.40;;;;;;;-4.95;100.00;98591.97;4992317;28;20054;-76
2021/01/16 03:57:37;;;;;;;9.35;3.88;;;;;;;-4.97;100.00;98594.00;4993475;28;20497;-76
2021/01/16 04:00:08;;;;;;;8.45;4.25;;;;;;;-5.05;100.00;98584.41;4993035;28;20049;-77
2021/01/16 04:05:10;;;;;;;8.38;3.88;;;;;;;-5.16;100.00;98583.09;5022317;28;20041;-79
2021/01/16 04:07:36;;;;;;;8.32;4.10;;;;;;;-5.15;100.00;98589.19;4983927;28;20056;-79
2021/01/16 04:10:05;;;;;;;8.50;4.00;;;;;;;-5.13;100.00;98576.63;5000927;28;20166;-80
2021/01/16 04:12:31;;;;;;;9.57;4.40;;;;;;;-5.21;100.00;98577.59;5016820;28;20062;-80
2021/01/16 04:15:00;;;;;;;8.10;4.00;;;;;;;-5.21;100.00;98582.03;4999991;28;20053;-80
2021/01/16 04:17:26;;;;;;;8.88;3.95;;;;;;;-5.27;100.00;98567.81;4991472;28;20034;-81
2021/01/16 04:19:53;;;;;;;9.73;4.60;;;;;;;-5.28;100.00;98576.72;5003664;28;20046;-81
2021/01/16 04:22:19;;;;;;;9.07;4.47;;;;;;;-5.39;100.00;98569.31;4982267;28;20059;-80
2021/01/16 04:24:46;;;;;;;11.30;4.60;;;;;;;-5.35;100.00;98575.88;5019081;28;20129;-79
2021/01/16 04:27:12;;;;;;;13.38;4.18;;;;;;;-5.45;100.00;98575.38;5003218;28;20049;-79
2021/01/16 04:29:39;;;;;;;8.57;4.05;;;;;;;-5.50;100.00;98567.22;5020809;28;20447;-80
2021/01/16 04:32:05;;;;;;;13.18;4.45;;;;;;;-5.54;100.00;98565.13;5001903;28;20049;-80
2021/01/16 04:34:31;;;;;;;8.80;4.53;;;;;;;-5.52;100.00;98563.13;5019733;28;20061;-80
2021/01/16 04:36:58;;;;;;;11.38;5.03;;;;;;;-5.53;100.00;98572.03;5018202;28;20053;-80
2021/01/16 04:39:24;;;;;;;11.50;4.85;;;;;;;-5.51;100.00;98573.50;4985693;28;20052;-79
2021/01/16 04:41:53;;;;;;;8.88;4.10;;;;;;;-5.49;100.00;98566.19;5000813;28;20092;-80
2021/01/16 04:44:23;;;;;;;9.48;4.72;;;;;;;-5.47;100.00;98561.53;5018537;28;20042;-80
2021/01/16 04:46:50;;;;;;;9.23;4.13;;;;;;;-5.40;100.00;98561.59;5018476;28;20046;-80
2021/01/16 04:49:20;;;;;;;9.60;4.35;;;;;;;-5.33;100.00;98575.66;5017794;28;20038;-80
2021/01/16 04:51:48;;;;;;;9.38;4.82;;;;;;;-5.32;100.00;98572.84;5018857;28;20068;-80
2021/01/16 04:54:15;;;;;;;10.50;4.90;;;;;;;-5.32;100.00;98569.38;5016347;28;20145;-80
2021/01/16 04:56:43;;;;;;;9.73;4.53;;;;;;;-5.27;100.00;98569.63;5001564;28;20084;-80
2021/01/16 04:59:09;;;;;;;10.77;4.47;;;;;;;-5.23;100.00;98563.78;5022605;28;20143;-80
2021/01/16 05:01:38;;;;;;;9.18;4.30;;;;;;;-5.32;100.00;98556.19;5019056;28;20049;-79
2021/01/16 05:04:09;;;;;;;11.82;4.78;;;;;;;-5.31;100.00;98561.28;5021121;28;20054;-78
2021/01/16 05:06:39;;;;;;;10.05;4.30;;;;;;;-5.28;100.00;98574.09;4998582;28;20049;-79
2021/01/16 05:09:06;;;;;;;13.05;4.95;;;;;;;-5.26;100.00;98564.16;4982291;28;20049;-80
2021/01/16 05:11:53;;;;;;;12.70;5.05;;;;;;;-5.31;100.00;98561.28;5017244;28;20042;-79
2021/01/16 05:14:19;;;;;;;11.77;5.18;;;;;;;-5.30;100.00;98565.56;5015657;28;20049;-79
2021/01/16 05:16:52;;;;;;;20.35;5.15;;;;;;;-5.28;100.00;98560.06;5017102;28;20084;-80
2021/01/16 05:19:33;;;;;;;13.57;5.82;;;;;;;-5.23;100.00;98561.13;4999798;28;20045;-80
2021/01/16 05:22:01;;;;;;;20.30;6.40;;;;;;;-5.27;100.00;98559.06;5004622;28;20409;-80
2021/01/16 05:24:28;;;;;;;14.63;5.85;;;;;;;-5.29;100.00;98550.53;5005794;28;20060;-79
2021/01/16 05:26:54;;;;;;;12.23;5.00;;;;;;;-5.30;100.00;98559.44;4967494;28;20049;-80
2021/01/16 05:29:24;;;;;;;13.15;5.28;;;;;;;-5.35;100.00;98556.56;5001473;28;20049;-80
2021/01/16 05:31:55;;;;;;;10.60;5.20;;;;;;;-5.44;100.00;98560.34;5012142;28;20042;-80
2021/01/16 05:34:23;;;;;;;13.95;5.32;;;;;;;-5.42;100.00;98555.72;5014326;28;20053;-80
2021/01/16 05:36:51;;;;;;;12.38;5.07;;;;;;;-5.38;100.00;98554.31;5014332;28;20053;-79
2021/01/16 05:39:19;;;;;;;13.32;5.18;;;;;;;-5.40;100.00;98558.97;4995688;28;20046;-80
2021/01/16 05:41:46;;;;;;;9.63;4.32;;;;;;;-5.41;100.00;98550.25;5014989;28;20501;-80
2021/01/16 05:44:14;;;;;;;12.38;5.43;;;;;;;-5.45;100.00;98549.00;5013081;28;20111;-80
2021/01/16 05:46:46;;;;;;;10.95;5.20;;;;;;;-5.35;100.00;98557.41;4997752;28;20056;-80
2021/01/16 05:49:18;;;;;;;12.20;5.13;;;;;;;-5.39;100.00;98558.78;5016829;28;20053;-79
2021/01/16 05:51:46;;;;;;;15.82;5.47;;;;;;;-5.41;100.00;98547.59;5016168;28;20045;-81
2021/01/16 05:54:13;;;;;;;11.40;4.95;;;;;;;-5.37;100.00;98562.06;4999449;28;20049;-80
2021/01/16 05:56:42;;;;;;;12.95;5.40;;;;;;;-5.31;100.00;98557.81;5016237;28;20076;-81
2021/01/16 05:59:11;;;;;;;12.43;5.45;;;;;;;-5.32;100.00;98564.94;5015543;28;20088;-80
2021/01/16 06:01:39;;;;;;;11.25;5.60;;;;;;;-5.38;100.00;98563.06;4997701;28;20435;-80
2021/01/16 06:04:06;;;;;;;11.57;5.07;;;;;;;-5.39;100.00;98556.13;5013407;28;20097;-80
2021/01/16 06:06:35;;;;;;;13.90;5.97;;;;;;;-5.34;100.00;98574.06;5015983;28;20056;-81
2021/01/16 06:09:03;;;;;;;10.45;5.47;;;;;;;-5.34;100.00;98571.41;5015314;28;20046;-80
2021/01/16 06:11:37;;;;;;;12.30;5.90;;;;;;;-5.31;100.00;98573.63;5016197;28;20056;-80
2021/01/16 06:14:09;;;;;;;8.90;4.60;;;;;;;-5.31;100.00;98571.81;5015236;28;20046;-80
2021/01/16 06:16:55;;;;;;;15.82;6.28;;;;;;;-5.27;100.00;98564.34;5014754;28;20489;-81
2021/01/16 06:19:25;;;;;;;13.80;5.88;;;;;;;-5.26;100.00;98568.59;5000147;28;20060;-80
2021/01/16 06:21:53;;;;;;;14.18;6.10;;;;;;;-5.27;100.00;98562.53;5002369;28;20320;-81
2021/01/16 06:24:24;;;;;;;14.40;6.20;;;;;;;-5.27;100.00;98567.81;5020403;28;20037;-81
2021/01/16 06:26:56;;;;;;;14.05;6.18;;;;;;;-5.29;100.00;98564.53;5017182;28;20060;-80
2021/01/16 06:29:30;;;;;;;15.02;6.65;;;;;;;-5.28;100.00;98566.16;5000455;28;20037;-80
2021/01/16 06:32:18;;;;;;;14.15;5.50;;;;;;;-5.33;100.00;98565.94;5019513;28;20536;-80
2021/01/16 06:34:44;;;;;;;13.57;5.97;;;;;;;-5.34;100.00;98572.19;5004310;28;20046;-80
2021/01/16 06:37:13;;;;;;;14.88;6.43;;;;;;;-5.30;100.00;98573.47;5000966;28;20087;-79
2021/01/16 06:39:49;;;;;;;12.35;5.97;;;;;;;-5.29;100.00;98569.00;5019075;28;20046;-80
2021/01/16 06:42:24;;;;;;;14.45;6.70;;;;;;;-5.33;100.00;98560.66;4998758;28;20042;-81
2021/01/16 06:45:02;;;;;;;17.95;6.78;;;;;;;-5.32;100.00;98564.13;5016719;28;20482;-81
2021/01/16 06:47:29;;;;;;;14.35;6.30;;;;;;;-5.31;100.00;98568.38;5017035;28;20543;-80
2021/01/16 06:49:59;;;;;;;13.82;5.93;;;;;;;-5.34;100.00;98566.94;4967726;28;20540;-81
2021/01/16 06:52:36;;;;;;;14.55;6.75;;;;;;;-5.34;100.00;98563.50;4984167;28;20054;-80
2021/01/16 06:55:05;;;;;;;16.00;6.15;;;;;;;-5.27;100.00;98567.00;5017841;28;20046;-81
2021/01/16 06:57:33;;;;;;;15.20;6.70;;;;;;;-5.26;100.00;98565.97;5003277;28;20477;-80
2021/01/16 07:00:01;;;;;;;19.20;6.70;;;;;;;-5.29;100.00;98567.16;5022981;28;20068;-80
2021/01/16 07:02:32;;;;;;;16.60;7.35;;;;;;;-5.32;100.00;98566.75;5003809;28;20042;-80
2021/01/16 07:05:20;;;;;;;13.68;6.65;;;;;;;-5.36;100.00;98553.13;5020390;28;20041;-80
2021/01/16 07:07:51;;;;;;;14.30;6.72;;;;;;;-5.34;100.00;98550.31;5024071;28;20507;-79
2021/01/16 07:10:29;;;;;;;21.80;7.22;;;;;;;-5.30;100.00;98568.19;4999607;28;20042;-79
2021/01/16 07:12:57;;;;;;;15.32;6.50;;;;;;;-5.26;100.00;98561.50;5001702;28;20044;-80
2021/01/16 07:15:28;;;;;;;14.82;6.18;;;;;;;-5.37;100.00;98550.69;4982394;28;20014;-80
2021/01/16 07:17:56;;;;;;;16.67;6.07;;;;;;;-5.33;100.00;98565.09;5004789;28;20053;-79
2021/01/16 07:20:23;;;;;;;14.00;6.57;;;;;;;-5.38;100.00;98559.59;5007308;28;20181;-79
2021/01/16 07:22:51;;;;;;;14.27;6.32;;;;;;;-5.34;100.00;98563.50;4984981;28;20497;-79
2021/01/16 07:25:19;;;;;;;13.45;6.70;;;;;;;-5.31;100.00;98563.91;4991835;28;20046;-80
2021/01/16 07:27:47;;;;;;;16.50;6.72;;;;;;;-5.30;100.00;98570.84;5003442;28;20101;-80
2021/01/16 07:30:15;;;;;;;17.45;7.60;;;;;;;-5.36;100.00;98561.03;5018271;28;20046;-80
2021/01/16 07:32:42;;;;;;;17.52;7.45;;;;;;;-5.29;100.00;98566.38;5000133;28;20049;-80
2021/01/16 07:35:12;;;;;;;17.63;7.95;;;;;;;-5.33;100.00;98562.47;5018053;28;20042;-79
2021/01/16 07:37:41;;;;;;;17.17;6.75;;;;;;;-5.33;100.00;98554.56;4998341;28;20053;-80
2021/01/16 07:40:25;;;;;;;17.15;6.97;;;;;;;-5.32;100.00;98559.66;5016527;28;20055;-79
2021/01/16 07:42:56;;;;;;;14.77;6.78;;;;;;;-5.29;100.00;98558.47;5015956;28;20073;-79
2021/01/16 07:45:27;;;;;;;14.15;6.47;;;;;;;-5.36;100.00;98554.94;4999190;28;20057;-78
2021/01/16 07:47:56;;;;;;;15.70;7.07;;;;;;;-5.33;100.00;98555.38;5006048;28;20042;-79
2021/01/16 07:50:28;;;;;;;19.23;7.55;;;;;;;-5.35;100.00;98552.13;5000445;28;20084;-79
2021/01/16 07:53:02;;;;;;;16.83;7.40;;;;;;;-5.29;100.00;98548.69;4983817;28;20539;-79
2021/01/16 07:55:37;;;;;;;15.40;6.63;;;;;;;-5.27;100.00;98535.31;4990350;28;20050;-79
2021/01/16 07:58:29;;;;;;;20.30;7.35;;;;;;;-5.39;100.00;98534.19;4998483;28;20390;-79
2021/01/16 08:01:32;;;;;;;15.63;6.97;;;;;;;-5.29;100.00;98530.22;5015780;28;20046;-79
2021/01/16 08:03:59;;;;;;;19.95;8.40;;;;;;;-5.24;100.00;98543.66;5003659;28;20133;-81
2021/01/16 08:06:51;;;;;;;17.70;8.27;;;;;;;-5.17;100.00;98528.72;5006169;28;20064;-79
2021/01/16 08:09:26;;;;;;;18.38;8.05;;;;;;;-5.09;100.00;98527.75;5010769;28;20054;-80
2021/01/16 08:11:53;;;;;;;16.98;7.30;;;;;;;-5.09;100.00;98530.38;4979887;28;20049;-79
2021/01/16 08:14:21;;;;;;;18.35;8.02;;;;;;;-5.07;100.00;98520.44;5003865;28;20052;-79
2021/01/16 08:16:54;;;;;;;21.23;7.75;;;;;;;-5.01;100.00;98524.13;5006416;28;20045;-79
2021/01/16 08:19:41;;;;;;;16.15;7.60;;;;;;;-4.97;100.00;98520.91;5009402;28;20057;-80
2021/01/16 08:22:16;;;;;;;14.88;7.32;;;;;;;-4.90;100.00;98518.31;5026190;28;20041;-80
2021/01/16 08:24:56;;;;;;;15.85;7.25;;;;;;;-4.74;100.00;98521.44;5023713;28;20405;-83
2021/01/16 08:27:29;;;;;;;16.15;7.13;;;;;;;-4.70;100.00;98524.50;5006198;28;20519;-83
2021/01/16 08:29:55;;;;;;;15.40;7.40;;;;;;;-4.71;100.00;98509.66;4982831;28;20042;-79
2021/01/16 08:32:24;;;;;;;18.08;7.72;;;;;;;-4.68;100.00;98504.81;5001190;28;20058;-83
2021/01/16 08:35:01;;;;;;;18.67;7.28;;;;;;;-4.68;100.00;98499.53;4986588;28;20141;-81
2021/01/16 08:37:38;;;;;;;17.92;7.30;;;;;;;-4.67;100.00;98503.00;5000673;28;20049;-79
2021/01/16 08:40:09;;;;;;;17.15;7.97;;;;;;;-4.56;100.00;98500.59;4983126;28;20052;-78
2021/01/16 08:42:53;;;;;;;17.15;7.43;;;;;;;-4.46;100.00;98495.72;5021108;28;20046;-78
2021/01/16 08:45:20;;;;;;;19.33;7.88;;;;;;;-4.43;100.00;98494.53;5001537;28;20042;-80
2021/01/16 08:47:55;;;;;;;13.70;7.68;;;;;;;-4.57;100.00;98493.66;5018279;28;20064;-80
2021/01/16 08:50:29;;;;;;;19.35;7.93;;;;;;;-4.54;100.00;98489.81;5020426;28;20042;-80
2021/01/16 08:52:58;;;;;;;16.92;7.65;;;;;;;-4.52;100.00;98485.16;4997833;28;20062;-85
2021/01/16 08:55:28;;;;;;;18.70;8.10;;;;;;;-4.33;100.00;98483.56;5011749;28;20048;-79
2021/01/16 08:58:09;;;;;;;15.00;7.43;;;;;;;-4.19;100.00;98493.16;5013483;28;20137;-79
2021/01/16 09:00:39;;;;;;;16.17;7.25;;;;;;;-4.20;100.00;98484.41;4994609;28;20046;-80
2021/01/16 09:03:16;;;;;;;23.08;8.10;;;;;;;-4.12;100.00;98481.59;4977640;28;20042;-81
2021/01/16 09:05:59;;;;;;;18.80;8.02;;;;;;;-4.19;100.00;98475.50;4976520;28;20046;-81
2021/01/16 09:08:28;;;;;;;18.13;7.68;;;;;;;-4.05;100.00;98479.78;4977168;28;20449;-79
2021/01/16 09:11:13;;;;;;;15.20;7.25;;;;;;;-4.22;100.00;98477.72;4991855;28;20038;-79
2021/01/16 09:13:44;;;;;;;17.17;7.03;;;;;;;-4.24;100.00;98469.16;4973429;28;20054;-78
2021/01/16 09:16:30;;;;;;;17.80;7.07;;;;;;;-4.28;100.00;98483.81;4977085;28;20053;-78
2021/01/16 09:18:58;;;;;;;14.60;6.95;;;;;;;-4.04;100.00;98485.88;5007592;28;20058;-79
2021/01/16 09:21:25;;;;;;;15.15;6.65;;;;;;;-3.41;100.00;98487.94;4993431;28;20053;-78
2021/01/16 09:23:52;;;;;;;23.92;7.10;;;;;;;-2.72;100.00;98468.84;5013031;28;20046;-78
2021/01/16 09:26:20;;;;;;;14.05;7.30;;;;;;;-2.32;100.00;98485.41;4995776;28;20041;-79
2021/01/16 09:28:51;;;;;;;16.10;7.72;;;;;;;-2.33;100.00;98484.56;5012650;28;20041;-79
2021/01/16 09:31:24;;;;;;;12.30;6.47;;;;;;;-2.62;100.00;98485.91;5012449;28;20042;-79
2021/01/16 09:33:58;;;;;;;13.20;6.13;;;;;;;-2.63;100.00;98486.94;4978850;28;20045;-78
2021/01/16 09:36:41;;;;;;;13.30;7.40;;;;;;;-2.60;100.00;98497.13;5014864;28;20124;-78
2021/01/16 09:39:32;;;;;;;15.82;7.18;;;;;;;-2.75;100.00;98499.22;5014176;28;20053;-79
2021/01/16 09:42:22;;;;;;;14.18;6.85;;;;;;;-3.16;100.00;98485.47;4994610;28;20046;-79
2021/01/16 09:44:50;;;;;;;17.77;6.45;;;;;;;-3.45;100.00;98486.72;5000255;28;20054;-78
2021/01/16 09:47:25;;;;;;;13.70;6.60;;;;;;;-3.81;100.00;98495.06;5011153;28;20042;-79
2021/01/16 09:50:02;;;;;;;18.63;7.43;;;;;;;-3.91;100.00;98480.59;5010806;28;20524;-80
2021/01/16 09:52:29;;;;;;;16.63;7.05;;;;;;;-3.82;100.00;98466.19;4993753;28;20049;-79
2021/01/16 09:54:57;;;;;;;15.38;7.47;;;;;;;-3.53;100.00;98475.53;5013566;28;20057;-79
2021/01/16 09:57:43;;;;;;;16.20;7.03;;;;;;;-2.30;100.00;98465.59;5002997;28;20052;-80
2021/01/16 10:00:13;;;;;;;16.50;6.53;;;;;;;-1.57;100.00;98471.19;5011670;28;20394;-80
2021/01/16 10:05:30;;;;;;;18.38;7.65;;;;;;;-1.18;100.00;98444.28;4954158;29;20047;-77
2021/01/16 10:07:58;;;;;;;18.45;7.40;;;;;;;-0.49;100.00;98433.25;4955737;29;20047;-77
2021/01/16 10:10:25;;;;;;;13.25;7.07;;;;;;;-0.06;100.00;98441.06;4967044;28;20039;-78
2021/01/16 10:12:59;;;;;;;20.38;7.35;;;;;;;-0.55;100.00;98441.31;4972754;28;20462;-76
2021/01/16 10:15:34;;;;;;;15.97;7.10;;;;;;;-0.30;100.00;98450.81;4972039;28;20061;-77
2021/01/16 10:18:05;;;;;;;13.02;6.85;;;;;;;0.17;100.00;98446.44;4955899;28;20050;-76
2021/01/16 10:20:34;;;;;;;11.95;6.85;;;;;;;0.26;100.00;98428.28;4971619;28;20093;-77
2021/01/16 10:23:07;;;;;;;14.38;7.40;;;;;;;0.37;100.00;98430.94;4954057;28;20110;-76
2021/01/16 10:25:41;;;;;;;13.55;7.28;;;;;;;-1.12;100.00;98421.34;4970168;28;20554;-76
2021/01/16 10:28:28;;;;;;;16.57;7.43;;;;;;;-1.80;100.00;98424.03;4972154;28;20054;-76
2021/01/16 10:30:59;;;;;;;15.43;7.80;;;;;;;-2.16;100.00;98426.53;4969414;28;20042;-76
2021/01/16 10:33:27;;;;;;;13.10;6.78;;;;;;;-2.21;100.00;98421.88;4969725;28;20047;-76
2021/01/16 10:36:08;;;;;;;15.10;6.97;;;;;;;-2.23;100.00;98428.41;4971411;28;20053;-76
2021/01/16 10:38:47;;;;;;;15.95;7.13;;;;;;;-2.66;100.00;98417.66;4970444;28;20062;-76
2021/01/16 10:41:17;;;;;;;15.27;7.25;;;;;;;-2.71;100.00;98418.28;4971095;28;20043;-77
2021/01/16 10:43:45;;;;;;;16.83;7.50;;;;;;;-2.71;100.00;98425.44;4970309;28;20391;-78
2021/01/16 10:46:30;;;;;;;17.30;8.52;;;;;;;-2.44;100.00;98421.63;4970760;28;20054;-76
2021/01/16 10:49:11;;;;;;;16.63;7.85;;;;;;;-2.45;100.00;98419.97;4970383;28;20109;-75
2021/01/16 10:51:40;;;;;;;15.68;7.68;;;;;;;-2.11;100.00;98418.75;4951588;28;20040;-76
2021/01/16 10:54:08;;;;;;;15.70;8.07;;;;;;;-2.15;100.00;98418.38;4951091;28;20070;-76
2021/01/16 10:56:35;;;;;;;13.57;6.68;;;;;;;-2.49;100.00;98404.72;4969928;28;20046;-76
2021/01/16 10:59:09;;;;;;;15.32;8.02;;;;;;;-2.41;100.00;98407.94;4959404;28;20055;-78
2021/01/16 11:01:49;;;;;;;16.65;8.18;;;;;;;-2.20;100.00;98401.47;4948438;29;20050;-78
2021/01/16 11:04:21;;;;;;;21.83;8.55;;;;;;;-2.39;100.00;98386.50;4950033;28;20189;-77
2021/01/16 11:06:59;;;;;;;16.83;8.15;;;;;;;-2.41;100.00;98389.38;4969507;28;20042;-78
2021/01/16 11:09:34;;;;;;;15.77;7.40;;;;;;;-2.57;100.00;98387.22;4974872;28;20109;-78
2021/01/16 11:12:01;;;;;;;;;;;;;;;-2.46;100.00;98373.31;4966579;28;20051;-76
2021/01/16 11:14:37;;;;;;;14.85;7.35;;;;;;;-2.23;100.00;98375.38;4963296;28;19933;-78
2021/01/16 11:17:05;;;;;;;17.30;7.55;;;;;;;-2.48;100.00;98371.91;4961341;28;20061;-78
2021/01/16 11:19:36;;;;;;;16.73;7.63;;;;;;;-2.53;100.00;98373.34;4980532;28;20073;-78
2021/01/16 11:22:07;;;;;;;17.05;8.50;;;;;;;-2.81;100.00;98375.53;4984579;28;20055;-77
2021/01/16 11:24:52;;;;;;;16.42;8.07;;;;;;;-2.47;100.00;98362.91;4983966;28;20047;-77
2021/01/16 11:27:27;;;;;;;17.60;8.43;;;;;;;-2.29;100.00;98371.75;4981780;28;20243;-78
2021/01/16 11:30:04;;;;;;;18.90;9.20;;;;;;;-2.11;100.00;98363.03;4986188;28;20414;-76
2021/01/16 11:32:35;;;;;;;17.45;8.25;;;;;;;-2.15;100.00;98372.47;4984377;28;20466;-77
2021/01/16 11:35:03;;;;;;;15.02;8.70;;;;;;;-2.00;100.00;98359.69;4988321;28;20102;-78
2021/01/16 11:37:45;;;;;;;14.93;8.63;;;;;;;-2.50;100.00;98360.69;4972743;28;20069;-78
2021/01/16 11:40:31;;;;;;;21.92;9.23;;;;;;;-2.57;100.00;98368.69;4986760;28;20034;-77
2021/01/16 11:43:06;;;;;;;19.83;9.38;;;;;;;-2.71;100.00;98359.19;4976072;28;20143;-77
2021/01/16 11:45:32;;;;;;;18.35;8.70;;;;;;;-2.98;100.00;98355.03;4972624;28;20102;-77